createdAt,value
2019-06-07T00:00:38.425Z,1007.77
2019-06-07T00:01:27.618Z,1007.77
2019-06-07T00:02:29.017Z,1007.78
2019-06-07T00:03:30.555Z,1007.78
2019-06-07T00:04:31.849Z,1007.81
2019-06-07T00:05:33.282Z,1007.80
2019-06-07T00:06:34.639Z,1007.88
2019-06-07T00:07:36.054Z,1007.82
2019-06-07T00:08:37.459Z,1007.84
2019-06-07T00:09:38.855Z,1007.89
2019-06-07T00:10:40.287Z,1007.90
2019-06-07T00:11:41.676Z,1007.90
2019-06-07T00:12:43.069Z,1007.96
2019-06-07T00:13:44.470Z,1007.96
2019-06-07T00:14:45.893Z,1007.96
2019-06-07T00:15:47.299Z,1007.95
2019-06-07T00:16:48.708Z,1007.93
2019-06-07T00:17:50.388Z,1007.90
2019-06-07T00:18:51.600Z,1007.92
2019-06-07T00:19:53.021Z,1007.90
2019-06-07T00:20:54.464Z,1007.94
2019-06-07T00:22:31.572Z,1007.95
2019-06-07T00:22:57.499Z,1007.95
2019-06-07T00:23:58.916Z,1007.96
2019-06-07T00:25:00.335Z,1007.97
2019-06-07T00:26:01.739Z,1007.91
2019-06-07T00:27:03.138Z,1007.88
2019-06-07T00:28:04.550Z,1007.89
2019-06-07T00:29:05.947Z,1007.88
2019-06-07T00:30:32.717Z,1007.90
2019-06-07T00:31:09.037Z,1007.93
2019-06-07T00:32:11.586Z,1007.99
2019-06-07T00:33:16.572Z,1007.97
2019-06-07T00:34:14.035Z,1007.94
2019-06-07T00:35:15.487Z,1007.90
2019-06-07T00:36:17.662Z,1007.88
2019-06-07T00:37:19.793Z,1007.86
2019-06-07T00:38:20.474Z,1007.88
2019-06-07T00:39:24.580Z,1007.85
2019-06-07T00:40:31.378Z,1007.88
2019-06-07T00:41:22.798Z,1007.90
2019-06-07T00:42:24.569Z,1007.87
2019-06-07T00:43:28.238Z,1007.86
2019-06-07T00:44:26.997Z,1007.84
2019-06-07T00:45:28.376Z,1007.85
2019-06-07T00:46:29.802Z,1007.83
2019-06-07T00:47:31.222Z,1007.84
2019-06-07T00:48:33.161Z,1007.74
2019-06-07T00:49:40.988Z,1007.75
2019-06-07T00:50:35.390Z,1007.78
2019-06-07T00:51:49.958Z,1007.72
2019-06-07T00:53:39.773Z,1007.70
2019-06-07T00:54:41.184Z,1007.70
2019-06-07T00:55:42.604Z,1007.66
2019-06-07T00:56:44.042Z,1007.64
2019-06-07T00:57:45.455Z,1007.67
2019-06-07T00:58:46.853Z,1007.65
2019-06-07T00:59:48.265Z,1007.61
2019-06-07T01:00:49.683Z,1007.68
2019-06-07T01:01:51.142Z,1007.70
2019-06-07T01:02:52.513Z,1007.73
2019-06-07T01:03:53.931Z,1007.76
2019-06-07T01:04:55.359Z,1007.72
2019-06-07T01:05:56.755Z,1007.73
2019-06-07T01:06:58.189Z,1007.68
2019-06-07T01:07:59.639Z,1007.69
2019-06-07T01:09:01.051Z,1007.71
2019-06-07T01:10:02.508Z,1007.71
2019-06-07T01:11:03.918Z,1007.68
2019-06-07T01:12:05.341Z,1007.68
2019-06-07T01:13:06.740Z,1007.67
2019-06-07T01:14:08.179Z,1007.68
2019-06-07T01:15:09.614Z,1007.62
2019-06-07T01:16:10.988Z,1007.66
2019-06-07T01:17:23.505Z,1007.62
2019-06-07T01:18:35.893Z,1007.62
2019-06-07T01:19:16.276Z,1007.66
2019-06-07T01:20:16.671Z,1007.64
2019-06-07T01:21:20.668Z,1007.63
2019-06-07T01:22:20.711Z,1007.63
2019-06-07T01:23:57.811Z,1007.68
2019-06-07T01:24:24.556Z,1007.67
2019-06-07T01:25:26.133Z,1007.72
2019-06-07T01:26:26.963Z,1007.66
2019-06-07T01:27:26.345Z,1007.69
2019-06-07T01:28:29.971Z,1007.72
2019-06-07T01:29:30.806Z,1007.69
2019-06-07T01:30:30.555Z,1007.72
2019-06-07T01:31:32.020Z,1007.68
2019-06-07T01:32:33.267Z,1007.71
2019-06-07T01:33:50.295Z,1007.73
2019-06-07T01:34:36.062Z,1007.79
2019-06-07T01:35:37.477Z,1007.83
2019-06-07T01:36:38.906Z,1007.86
2019-06-07T01:37:40.324Z,1007.85
2019-06-07T01:38:41.753Z,1007.86
2019-06-07T01:39:43.154Z,1007.85
2019-06-07T01:40:44.551Z,1007.83
2019-06-07T01:41:45.960Z,1007.84
2019-06-07T01:42:47.374Z,1007.82
2019-06-07T01:43:48.776Z,1007.83
2019-06-07T01:44:50.175Z,1007.82
2019-06-07T01:45:51.724Z,1007.81
2019-06-07T01:46:53.126Z,1007.80
2019-06-07T01:47:54.530Z,1007.83
2019-06-07T01:48:55.924Z,1007.80
2019-06-07T01:49:57.354Z,1007.85
2019-06-07T01:50:58.750Z,1007.81
2019-06-07T01:52:00.185Z,1007.83
2019-06-07T01:53:01.587Z,1007.85
2019-06-07T01:54:48.494Z,1007.84
2019-06-07T01:55:04.406Z,1007.87
2019-06-07T01:56:05.806Z,1007.89
2019-06-07T01:57:07.219Z,1007.96
2019-06-07T01:58:08.621Z,1007.97
2019-06-07T01:59:10.039Z,1007.99
2019-06-07T02:00:11.454Z,1007.99
2019-06-07T02:01:12.857Z,1007.99
2019-06-07T02:02:14.303Z,1008.02
2019-06-07T02:03:15.758Z,1008.03
2019-06-07T02:04:19.231Z,1008.08
2019-06-07T02:05:19.652Z,1008.08
2019-06-07T02:06:21.027Z,1008.08
2019-06-07T02:07:26.903Z,1008.12
2019-06-07T02:08:23.874Z,1008.09
2019-06-07T02:09:26.409Z,1008.13
2019-06-07T02:10:29.922Z,1008.12
2019-06-07T02:11:28.614Z,1008.14
2019-06-07T02:12:37.694Z,1008.17
2019-06-07T02:13:30.722Z,1008.16
2019-06-07T02:14:33.262Z,1008.18
2019-06-07T02:15:36.437Z,1008.16
2019-06-07T02:16:33.608Z,1008.16
2019-06-07T02:17:35.018Z,1008.13
2019-06-07T02:18:36.430Z,1008.19
2019-06-07T02:19:37.832Z,1008.16
2019-06-07T02:20:39.243Z,1008.14
2019-06-07T02:21:40.651Z,1008.23
2019-06-07T02:22:42.063Z,1008.22
2019-06-07T02:23:43.469Z,1008.25
2019-06-07T02:24:44.870Z,1008.30
2019-06-07T02:25:50.171Z,1008.26
2019-06-07T02:26:47.661Z,1008.30
2019-06-07T02:27:49.705Z,1008.28
2019-06-07T02:28:51.100Z,1008.23
2019-06-07T02:29:52.515Z,1008.22
2019-06-07T02:30:59.791Z,1008.20
2019-06-07T02:31:55.273Z,1008.22
2019-06-07T02:32:56.663Z,1008.22
2019-06-07T02:33:58.113Z,1008.16
2019-06-07T02:34:59.514Z,1008.15
2019-06-07T02:36:00.956Z,1008.14
2019-06-07T02:37:02.363Z,1008.13
2019-06-07T02:38:03.758Z,1008.13
2019-06-07T02:39:05.167Z,1008.08
2019-06-07T02:40:06.565Z,1008.06
2019-06-07T02:41:07.966Z,1008.07
2019-06-07T02:42:09.369Z,1008.04
2019-06-07T02:43:10.794Z,1008.05
2019-06-07T02:44:12.961Z,1008.03
2019-06-07T02:45:14.368Z,1007.99
2019-06-07T02:46:28.090Z,1008.02
2019-06-07T02:47:17.138Z,1008.04
2019-06-07T02:48:18.539Z,1007.99
2019-06-07T02:49:19.946Z,1008.01
2019-06-07T02:50:22.982Z,1007.94
2019-06-07T02:51:24.460Z,1007.95
2019-06-07T02:52:27.366Z,1007.94
2019-06-07T02:53:26.839Z,1007.97
2019-06-07T02:54:29.861Z,1008.00
2019-06-07T02:55:33.216Z,1008.02
2019-06-07T02:56:52.209Z,1008.01
2019-06-07T02:57:36.896Z,1008.01
2019-06-07T02:58:37.960Z,1008.02
2019-06-07T02:59:54.965Z,1008.05
2019-06-07T03:01:00.363Z,1008.04
2019-06-07T03:01:41.346Z,1008.04
2019-06-07T03:02:41.515Z,1007.99
2019-06-07T03:03:40.472Z,1007.97
2019-06-07T03:04:44.269Z,1007.95
2019-06-07T03:05:43.295Z,1007.92
2019-06-07T03:06:44.694Z,1007.95
2019-06-07T03:07:46.103Z,1007.92
2019-06-07T03:08:47.498Z,1007.93
2019-06-07T03:09:48.908Z,1007.95
2019-06-07T03:10:50.360Z,1007.90
2019-06-07T03:11:51.821Z,1007.90
2019-06-07T03:12:53.248Z,1007.91
2019-06-07T03:13:54.661Z,1007.84
2019-06-07T03:14:56.050Z,1007.88
2019-06-07T03:15:57.468Z,1007.89
2019-06-07T03:16:58.875Z,1007.85
2019-06-07T03:18:00.292Z,1007.91
2019-06-07T03:19:01.709Z,1007.96
2019-06-07T03:20:03.129Z,1007.96
2019-06-07T03:21:05.641Z,1007.98
2019-06-07T03:22:05.905Z,1007.98
2019-06-07T03:23:07.329Z,1007.98
2019-06-07T03:24:08.778Z,1007.97
2019-06-07T03:25:10.169Z,1007.98
2019-06-07T03:26:11.597Z,1008.00
2019-06-07T03:28:14.581Z,1007.97
2019-06-07T03:29:15.988Z,1007.96
2019-06-07T03:30:39.127Z,1007.92
2019-06-07T03:31:19.489Z,1007.94
2019-06-07T03:32:20.912Z,1007.91
2019-06-07T03:33:22.332Z,1007.96
2019-06-07T03:34:23.745Z,1007.97
2019-06-07T03:35:27.605Z,1008.02
2019-06-07T03:36:27.482Z,1008.05
2019-06-07T03:37:29.966Z,1008.12
2019-06-07T03:38:31.987Z,1008.18
2019-06-07T03:39:31.397Z,1008.21
2019-06-07T03:40:33.953Z,1008.20
2019-06-07T03:41:43.809Z,1008.22
2019-06-07T03:42:38.346Z,1008.19
2019-06-07T03:43:39.962Z,1008.17
2019-06-07T03:44:40.660Z,1008.16
2019-06-07T03:45:41.447Z,1008.17
2019-06-07T03:46:41.612Z,1008.17
2019-06-07T03:47:42.645Z,1008.16
2019-06-07T03:48:43.133Z,1008.20
2019-06-07T03:49:44.535Z,1008.14
2019-06-07T03:50:45.967Z,1008.12
2019-06-07T03:51:47.379Z,1008.14
2019-06-07T03:52:48.804Z,1008.15
2019-06-07T03:53:50.222Z,1008.21
2019-06-07T03:54:51.620Z,1008.24
2019-06-07T03:55:53.070Z,1008.27
2019-06-07T03:56:54.473Z,1008.25
2019-06-07T03:58:57.446Z,1008.33
2019-06-07T03:59:58.884Z,1008.33
2019-06-07T04:01:02.078Z,1008.36
2019-06-07T04:02:01.686Z,1008.39
2019-06-07T04:03:03.104Z,1008.40
2019-06-07T04:04:04.537Z,1008.41
2019-06-07T04:05:05.949Z,1008.44
2019-06-07T04:06:07.352Z,1008.45
2019-06-07T04:07:08.766Z,1008.45
2019-06-07T04:08:10.185Z,1008.47
2019-06-07T04:09:11.582Z,1008.47
2019-06-07T04:10:12.984Z,1008.56
2019-06-07T04:11:14.410Z,1008.56
2019-06-07T04:12:15.849Z,1008.61
2019-06-07T04:13:17.275Z,1008.58
2019-06-07T04:14:18.677Z,1008.58
2019-06-07T04:15:20.110Z,1008.60
2019-06-07T04:16:21.529Z,1008.55
2019-06-07T04:17:22.940Z,1008.60
2019-06-07T04:18:24.364Z,1008.63
2019-06-07T04:19:25.797Z,1008.68
2019-06-07T04:20:29.193Z,1008.70
2019-06-07T04:21:29.731Z,1008.69
2019-06-07T04:22:31.465Z,1008.65
2019-06-07T04:23:33.120Z,1008.64
2019-06-07T04:24:34.670Z,1008.63
2019-06-07T04:25:37.118Z,1008.59
2019-06-07T04:26:36.811Z,1008.58
2019-06-07T04:27:39.305Z,1008.66
2019-06-07T04:30:03.463Z,1008.72
2019-06-07T04:30:41.999Z,1008.69
2019-06-07T04:31:43.181Z,1008.73
2019-06-07T04:32:44.990Z,1008.72
2019-06-07T04:33:45.460Z,1008.76
2019-06-07T04:34:46.874Z,1008.73
2019-06-07T04:35:48.282Z,1008.75
2019-06-07T04:36:58.823Z,1008.76
2019-06-07T04:37:51.058Z,1008.76
2019-06-07T04:38:52.465Z,1008.83
2019-06-07T04:39:53.921Z,1008.80
2019-06-07T04:40:55.295Z,1008.75
2019-06-07T04:41:56.697Z,1008.75
2019-06-07T04:42:58.117Z,1008.75
2019-06-07T04:43:59.533Z,1008.77
2019-06-07T04:45:00.956Z,1008.79
2019-06-07T04:46:02.364Z,1008.80
2019-06-07T04:47:03.793Z,1008.81
2019-06-07T04:48:05.221Z,1008.84
2019-06-07T04:49:06.642Z,1008.89
2019-06-07T04:50:08.057Z,1008.88
2019-06-07T04:51:10.408Z,1008.89
2019-06-07T04:52:11.901Z,1008.87
2019-06-07T04:53:13.322Z,1008.89
2019-06-07T04:54:14.739Z,1008.87
2019-06-07T04:55:16.156Z,1008.85
2019-06-07T04:56:17.563Z,1008.83
2019-06-07T04:57:19.004Z,1008.81
2019-06-07T04:58:20.438Z,1008.78
2019-06-07T05:00:01.236Z,1008.79
2019-06-07T05:00:48.708Z,1008.80
2019-06-07T05:01:27.833Z,1008.92
2019-06-07T05:02:26.376Z,1008.88
2019-06-07T05:03:27.858Z,1008.82
2019-06-07T05:04:31.286Z,1008.88
2019-06-07T05:05:31.748Z,1008.84
2019-06-07T05:06:34.824Z,1008.93
2019-06-07T05:07:34.598Z,1008.95
2019-06-07T05:08:36.163Z,1008.92
2019-06-07T05:09:38.974Z,1008.89
2019-06-07T05:10:38.851Z,1008.85
2019-06-07T05:11:43.354Z,1008.91
2019-06-07T05:12:43.986Z,1008.95
2019-06-07T05:13:43.811Z,1008.96
2019-06-07T05:14:44.347Z,1008.89
2019-06-07T05:15:44.488Z,1008.84
2019-06-07T05:16:45.904Z,1008.81
2019-06-07T05:17:47.315Z,1008.75
2019-06-07T05:18:48.734Z,1008.73
2019-06-07T05:19:50.146Z,1008.69
2019-06-07T05:20:51.559Z,1008.72
2019-06-07T05:22:03.433Z,1008.69
2019-06-07T05:22:54.331Z,1008.71
2019-06-07T05:24:06.564Z,1008.69
2019-06-07T05:24:57.310Z,1008.72
2019-06-07T05:25:58.718Z,1008.72
2019-06-07T05:27:00.120Z,1008.75
2019-06-07T05:28:01.536Z,1008.72
2019-06-07T05:29:02.945Z,1008.75
2019-06-07T05:30:23.744Z,1008.77
2019-06-07T05:31:07.861Z,1008.81
2019-06-07T05:32:07.328Z,1008.78
2019-06-07T05:33:09.365Z,1008.80
2019-06-07T05:34:10.783Z,1008.78
2019-06-07T05:35:12.319Z,1008.72
2019-06-07T05:36:13.844Z,1008.74
2019-06-07T05:37:15.299Z,1008.74
2019-06-07T05:38:16.717Z,1008.73
2019-06-07T05:39:18.130Z,1008.69
2019-06-07T05:40:19.547Z,1008.73
2019-06-07T05:41:20.961Z,1008.69
2019-06-07T05:42:22.346Z,1008.76
2019-06-07T05:43:23.754Z,1008.74
2019-06-07T05:44:25.168Z,1008.73
2019-06-07T05:45:26.609Z,1008.71
2019-06-07T05:46:27.991Z,1008.65
2019-06-07T05:47:29.410Z,1008.69
2019-06-07T05:48:31.808Z,1008.70
2019-06-07T05:49:32.908Z,1008.74
2019-06-07T05:50:43.921Z,1008.77
2019-06-07T05:51:37.254Z,1008.87
2019-06-07T05:52:39.545Z,1008.92
2019-06-07T05:53:38.988Z,1008.91
2019-06-07T05:54:40.501Z,1008.76
2019-06-07T05:55:44.157Z,1008.77
2019-06-07T05:56:43.259Z,1008.86
2019-06-07T05:57:48.576Z,1008.87
2019-06-07T05:58:44.817Z,1008.95
2019-06-07T05:59:47.633Z,1008.88
2019-06-07T06:00:48.180Z,1008.79
2019-06-07T06:02:00.161Z,1008.77
2019-06-07T06:03:04.071Z,1008.75
2019-06-07T06:03:52.400Z,1008.81
2019-06-07T06:04:53.818Z,1008.77
2019-06-07T06:05:55.670Z,1008.78
2019-06-07T06:06:56.675Z,1008.80
2019-06-07T06:07:58.325Z,1008.71
2019-06-07T06:09:13.404Z,1008.87
2019-06-07T06:10:00.820Z,1008.88
2019-06-07T06:11:02.227Z,1008.87
2019-06-07T06:12:03.642Z,1008.82
2019-06-07T06:13:05.045Z,1008.72
2019-06-07T06:14:08.341Z,1008.67
2019-06-07T06:15:07.829Z,1008.75
2019-06-07T06:16:09.236Z,1008.77
2019-06-07T06:17:10.647Z,1008.83
2019-06-07T06:18:12.059Z,1008.80
2019-06-07T06:19:13.470Z,1008.81
2019-06-07T06:20:14.880Z,1008.82
2019-06-07T06:21:19.759Z,1008.79
2019-06-07T06:22:17.675Z,1008.75
2019-06-07T06:23:19.088Z,1008.84
2019-06-07T06:24:20.518Z,1009.02
2019-06-07T06:25:32.247Z,1008.95
2019-06-07T06:26:25.523Z,1008.94
2019-06-07T06:28:03.503Z,1008.90
2019-06-07T06:28:28.536Z,1008.89
2019-06-07T06:29:29.971Z,1008.77
2019-06-07T06:30:31.399Z,1008.74
2019-06-07T06:31:32.830Z,1008.76
2019-06-07T06:32:46.728Z,1008.80
2019-06-07T06:33:35.860Z,1008.79
2019-06-07T06:34:40.045Z,1008.81
2019-06-07T06:35:39.866Z,1008.86
2019-06-07T06:36:43.649Z,1008.84
2019-06-07T06:37:42.512Z,1008.88
2019-06-07T06:38:43.890Z,1008.87
2019-06-07T06:39:47.645Z,1008.88
2019-06-07T06:40:48.916Z,1008.85
2019-06-07T06:41:58.617Z,1008.82
2019-06-07T06:42:49.021Z,1008.84
2019-06-07T06:43:52.157Z,1008.87
2019-06-07T06:44:53.992Z,1008.86
2019-06-07T06:45:52.585Z,1008.88
2019-06-07T06:46:58.188Z,1008.97
2019-06-07T06:47:55.433Z,1008.96
2019-06-07T06:48:57.004Z,1008.92
2019-06-07T06:49:58.281Z,1008.92
2019-06-07T06:50:59.698Z,1008.93
2019-06-07T06:52:01.142Z,1008.90
2019-06-07T06:53:02.561Z,1008.91
2019-06-07T06:54:03.964Z,1008.87
2019-06-07T06:55:05.420Z,1008.93
2019-06-07T06:56:06.849Z,1009.02
2019-06-07T06:57:19.735Z,1008.95
2019-06-07T06:58:09.622Z,1008.96
2019-06-07T06:59:37.101Z,1008.98
2019-06-07T07:00:12.716Z,1008.96
2019-06-07T07:01:14.149Z,1009.03
2019-06-07T07:02:15.608Z,1009.07
2019-06-07T07:03:56.563Z,1009.06
2019-06-07T07:04:18.609Z,1009.06
2019-06-07T07:05:20.047Z,1009.07
2019-06-07T07:06:26.322Z,1009.07
2019-06-07T07:07:23.123Z,1009.07
2019-06-07T07:08:24.573Z,1009.09
2019-06-07T07:09:26.000Z,1009.11
2019-06-07T07:10:27.419Z,1009.13
2019-06-07T07:11:28.854Z,1009.13
2019-06-07T07:12:30.289Z,1009.12
2019-06-07T07:13:31.793Z,1009.12
2019-06-07T07:14:33.300Z,1009.14
2019-06-07T07:15:34.613Z,1009.11
2019-06-07T07:16:36.033Z,1009.16
2019-06-07T07:17:50.730Z,1009.12
2019-06-07T07:18:38.840Z,1009.08
2019-06-07T07:19:42.348Z,1009.09
2019-06-07T07:20:43.550Z,1009.08
2019-06-07T07:21:45.093Z,1009.08
2019-06-07T07:22:46.400Z,1009.11
2019-06-07T07:24:08.615Z,1009.12
2019-06-07T07:24:49.732Z,1009.13
2019-06-07T07:25:57.269Z,1009.14
2019-06-07T07:26:51.150Z,1009.14
2019-06-07T07:27:53.842Z,1009.13
2019-06-07T07:28:57.220Z,1009.14
2019-06-07T07:30:22.781Z,1009.08
2019-06-07T07:30:56.982Z,1009.09
2019-06-07T07:31:56.935Z,1009.07
2019-06-07T07:32:59.420Z,1009.05
2019-06-07T07:34:30.923Z,1009.10
2019-06-07T07:35:01.205Z,1009.02
2019-06-07T07:36:18.899Z,1009.03
2019-06-07T07:37:04.197Z,1009.14
2019-06-07T07:38:05.697Z,1009.04
2019-06-07T07:39:07.171Z,1009.02
2019-06-07T07:40:55.483Z,1009.15
2019-06-07T07:41:15.524Z,1009.11
2019-06-07T07:42:20.917Z,1009.10
2019-06-07T07:43:13.032Z,1009.00
2019-06-07T07:44:14.456Z,1009.03
2019-06-07T07:45:16.677Z,1008.98
2019-06-07T07:46:31.818Z,1009.02
2019-06-07T07:47:18.902Z,1009.05
2019-06-07T07:48:20.330Z,1009.04
2019-06-07T07:49:21.745Z,1008.92
2019-06-07T07:50:23.166Z,1008.97
2019-06-07T07:51:24.611Z,1008.93
2019-06-07T07:52:26.029Z,1008.89
2019-06-07T07:53:45.296Z,1008.89
2019-06-07T07:54:28.850Z,1008.87
2019-06-07T07:55:30.309Z,1008.81
2019-06-07T07:56:31.682Z,1008.87
2019-06-07T07:57:33.090Z,1008.90
2019-06-07T07:58:34.510Z,1008.87
2019-06-07T07:59:44.189Z,1008.91
2019-06-07T08:00:52.365Z,1008.92
2019-06-07T08:01:38.757Z,1008.83
2019-06-07T08:02:40.167Z,1008.86
2019-06-07T08:03:41.589Z,1008.85
2019-06-07T08:05:13.977Z,1008.83
2019-06-07T08:05:45.696Z,1008.85
2019-06-07T08:06:46.662Z,1008.91
2019-06-07T08:07:49.871Z,1008.84
2019-06-07T08:08:48.757Z,1008.89
2019-06-07T08:09:51.422Z,1008.85
2019-06-07T08:10:53.710Z,1008.87
2019-06-07T08:11:55.873Z,1008.90
2019-06-07T08:13:15.886Z,1008.89
2019-06-07T08:13:57.311Z,1008.90
2019-06-07T08:15:00.298Z,1008.94
2019-06-07T08:16:00.453Z,1008.89
2019-06-07T08:16:59.816Z,1008.89
2019-06-07T08:18:04.323Z,1008.87
2019-06-07T08:19:04.342Z,1008.84
2019-06-07T08:20:04.966Z,1008.87
2019-06-07T08:21:23.722Z,1008.92
2019-06-07T08:22:07.795Z,1008.84
2019-06-07T08:23:09.232Z,1008.85
2019-06-07T08:24:10.661Z,1008.86
2019-06-07T08:25:12.065Z,1008.80
2019-06-07T08:26:13.485Z,1008.82
2019-06-07T08:27:26.036Z,1008.89
2019-06-07T08:28:16.346Z,1008.92
2019-06-07T08:29:17.763Z,1008.97
2019-06-07T08:30:47.947Z,1008.96
2019-06-07T08:31:20.824Z,1008.99
2019-06-07T08:32:22.225Z,1008.97
2019-06-07T08:33:26.360Z,1008.98
2019-06-07T08:34:25.319Z,1008.99
2019-06-07T08:36:41.359Z,1009.01
2019-06-07T08:38:13.251Z,1009.03
2019-06-07T08:38:47.010Z,1008.99
2019-06-07T08:39:32.532Z,1009.02
2019-06-07T08:40:33.969Z,1009.00
2019-06-07T08:41:35.381Z,1008.94
2019-06-07T08:42:42.344Z,1008.95
2019-06-07T08:43:38.209Z,1008.99
2019-06-07T08:44:39.617Z,1009.01
2019-06-07T08:45:43.136Z,1008.98
2019-06-07T08:46:44.700Z,1008.97
2019-06-07T08:47:46.183Z,1008.93
2019-06-07T08:48:47.601Z,1008.89
2019-06-07T08:49:50.955Z,1008.89
2019-06-07T08:50:54.202Z,1008.94
2019-06-07T08:51:56.625Z,1008.97
2019-06-07T08:52:56.470Z,1008.95
2019-06-07T08:54:18.919Z,1008.98
2019-06-07T08:54:57.872Z,1008.92
2019-06-07T08:56:04.417Z,1008.94
2019-06-07T08:57:16.878Z,1008.94
2019-06-07T08:58:05.772Z,1008.92
2019-06-07T08:59:10.859Z,1008.89
2019-06-07T09:00:16.219Z,1008.91
2019-06-07T09:01:08.273Z,1008.92
2019-06-07T09:02:22.513Z,1008.94
2019-06-07T09:03:07.544Z,1008.92
2019-06-07T09:04:11.009Z,1008.88
2019-06-07T09:05:12.438Z,1008.92
2019-06-07T09:06:53.386Z,1008.90
2019-06-07T09:07:19.469Z,1008.94
2019-06-07T09:08:29.202Z,1008.93
2019-06-07T09:09:15.536Z,1008.87
2019-06-07T09:10:16.977Z,1008.92
2019-06-07T09:11:18.397Z,1008.93
2019-06-07T09:12:19.816Z,1008.93
2019-06-07T09:13:21.268Z,1008.89
2019-06-07T09:14:22.714Z,1008.87
2019-06-07T09:15:24.477Z,1008.92
2019-06-07T09:16:25.518Z,1008.87
2019-06-07T09:17:26.958Z,1008.92
2019-06-07T09:18:42.346Z,1008.84
2019-06-07T09:19:29.942Z,1008.86
2019-06-07T09:20:36.892Z,1008.88
2019-06-07T09:21:32.777Z,1008.90
2019-06-07T09:22:34.187Z,1008.89
2019-06-07T09:23:35.637Z,1008.92
2019-06-07T09:24:37.057Z,1008.91
2019-06-07T09:25:55.985Z,1008.90
2019-06-07T09:26:39.891Z,1008.92
2019-06-07T09:27:41.343Z,1008.94
2019-06-07T09:28:42.784Z,1008.94
2019-06-07T09:29:44.214Z,1008.92
2019-06-07T09:30:45.684Z,1008.93
2019-06-07T09:31:53.200Z,1008.89
2019-06-07T09:32:48.730Z,1008.87
2019-06-07T09:33:50.159Z,1008.92
2019-06-07T09:34:51.569Z,1008.85
2019-06-07T09:35:52.997Z,1008.89
2019-06-07T09:36:54.423Z,1008.82
2019-06-07T09:38:07.284Z,1008.82
2019-06-07T09:38:58.942Z,1008.84
2019-06-07T09:40:05.596Z,1008.86
2019-06-07T09:41:02.331Z,1008.85
2019-06-07T09:42:04.285Z,1008.81
2019-06-07T09:43:47.574Z,1008.84
2019-06-07T09:44:20.408Z,1008.85
2019-06-07T09:45:08.853Z,1008.88
2019-06-07T09:46:12.866Z,1008.89
2019-06-07T09:47:30.456Z,1008.84
2019-06-07T09:48:13.883Z,1008.87
2019-06-07T09:49:21.267Z,1008.83
2019-06-07T09:50:12.748Z,1008.82
2019-06-07T09:51:20.059Z,1008.85
2019-06-07T09:52:15.463Z,1008.81
2019-06-07T09:53:22.352Z,1008.82
2019-06-07T09:55:24.785Z,1008.76
2019-06-07T09:56:22.377Z,1008.78
2019-06-07T09:57:23.823Z,1008.74
2019-06-07T09:58:51.035Z,1008.76
2019-06-07T09:59:26.862Z,1008.75
2019-06-07T10:00:40.584Z,1008.73
2019-06-07T10:01:29.877Z,1008.72
2019-06-07T10:02:31.289Z,1008.77
2019-06-07T10:03:32.720Z,1008.74
2019-06-07T10:04:34.192Z,1008.73
2019-06-07T10:05:35.629Z,1008.72
2019-06-07T10:06:37.099Z,1008.69
2019-06-07T10:07:38.538Z,1008.71
2019-06-07T10:09:57.082Z,1008.72
2019-06-07T10:10:43.455Z,1008.63
2019-06-07T10:11:44.530Z,1008.63
2019-06-07T10:12:45.948Z,1008.58
2019-06-07T10:13:47.388Z,1008.59
2019-06-07T10:14:48.845Z,1008.62
2019-06-07T10:15:53.027Z,1008.65
2019-06-07T10:16:51.681Z,1008.64
2019-06-07T10:17:53.114Z,1008.64
2019-06-07T10:18:54.543Z,1008.65
2019-06-07T10:19:55.971Z,1008.63
2019-06-07T10:20:57.382Z,1008.66
2019-06-07T10:21:59.114Z,1008.65
2019-06-07T10:23:01.639Z,1008.67
2019-06-07T10:24:01.689Z,1008.62
2019-06-07T10:25:04.254Z,1008.61
2019-06-07T10:26:05.952Z,1008.63
2019-06-07T10:27:06.036Z,1008.64
2019-06-07T10:28:08.259Z,1008.63
2019-06-07T10:29:09.071Z,1008.65
2019-06-07T10:30:10.435Z,1008.65
2019-06-07T10:31:11.553Z,1008.62
2019-06-07T10:32:12.932Z,1008.58
2019-06-07T10:33:14.379Z,1008.58
2019-06-07T10:34:15.811Z,1008.57
2019-06-07T10:35:17.272Z,1008.48
2019-06-07T10:36:18.711Z,1008.50
2019-06-07T10:37:20.177Z,1008.50
2019-06-07T10:38:21.655Z,1008.49
2019-06-07T10:39:23.098Z,1008.49
2019-06-07T10:40:24.513Z,1008.50
2019-06-07T10:41:25.928Z,1008.49
2019-06-07T10:42:27.364Z,1008.44
2019-06-07T10:43:28.786Z,1008.38
2019-06-07T10:44:30.226Z,1008.39
2019-06-07T10:45:31.666Z,1008.34
2019-06-07T10:46:33.131Z,1008.30
2019-06-07T10:47:34.538Z,1008.27
2019-06-07T10:48:35.993Z,1008.28
2019-06-07T10:49:37.469Z,1008.21
2019-06-07T10:50:38.886Z,1008.27
2019-06-07T10:51:40.335Z,1008.31
2019-06-07T10:52:41.748Z,1008.38
2019-06-07T10:53:43.215Z,1008.38
2019-06-07T10:54:44.648Z,1008.38
2019-06-07T10:55:46.079Z,1008.37
2019-06-07T10:56:47.531Z,1008.41
2019-06-07T10:57:48.955Z,1008.38
2019-06-07T10:58:50.399Z,1008.37
2019-06-07T10:59:51.881Z,1008.37
2019-06-07T11:00:53.297Z,1008.38
2019-06-07T11:01:54.715Z,1008.34
2019-06-07T11:02:56.127Z,1008.31
2019-06-07T11:03:57.572Z,1008.40
2019-06-07T11:04:59.036Z,1008.32
2019-06-07T11:06:00.476Z,1008.34
2019-06-07T11:07:01.925Z,1008.32
2019-06-07T11:08:03.857Z,1008.33
2019-06-07T11:09:05.924Z,1008.33
2019-06-07T11:10:10.772Z,1008.34
2019-06-07T11:11:07.969Z,1008.29
2019-06-07T11:12:10.584Z,1008.26
2019-06-07T11:13:10.493Z,1008.25
2019-06-07T11:14:12.646Z,1008.16
2019-06-07T11:15:13.192Z,1008.25
2019-06-07T11:16:15.660Z,1008.22
2019-06-07T11:17:17.773Z,1008.24
2019-06-07T11:18:18.782Z,1008.23
2019-06-07T11:19:19.731Z,1008.29
2019-06-07T11:20:20.337Z,1008.26
2019-06-07T11:21:21.822Z,1008.21
2019-06-07T11:22:23.296Z,1008.21
2019-06-07T11:23:24.757Z,1008.16
2019-06-07T11:24:26.216Z,1008.17
2019-06-07T11:25:27.609Z,1008.16
2019-06-07T11:26:29.063Z,1008.16
2019-06-07T11:27:30.515Z,1008.20
2019-06-07T11:28:31.964Z,1008.14
2019-06-07T11:29:33.421Z,1008.11
2019-06-07T11:30:34.865Z,1008.13
2019-06-07T11:31:36.308Z,1008.08
2019-06-07T11:32:37.754Z,1008.05
2019-06-07T11:33:39.400Z,1008.10
2019-06-07T11:34:41.982Z,1008.13
2019-06-07T11:35:43.398Z,1008.10
2019-06-07T11:36:44.817Z,1008.11
2019-06-07T11:37:46.254Z,1008.11
2019-06-07T11:38:47.682Z,1008.14
2019-06-07T11:39:49.136Z,1008.18
2019-06-07T11:40:50.561Z,1008.01
2019-06-07T11:41:52.021Z,1008.10
2019-06-07T11:42:53.458Z,1008.16
2019-06-07T11:43:55.430Z,1008.13
2019-06-07T11:44:57.352Z,1008.10
2019-06-07T11:45:58.321Z,1008.16
2019-06-07T11:46:59.746Z,1008.13
2019-06-07T11:48:01.213Z,1008.09
2019-06-07T11:49:02.650Z,1008.05
2019-06-07T11:50:04.075Z,1008.11
2019-06-07T11:51:06.557Z,1008.07
2019-06-07T11:52:07.333Z,1008.08
2019-06-07T11:53:08.536Z,1008.12
2019-06-07T11:54:09.766Z,1008.09
2019-06-07T11:55:11.524Z,1008.09
2019-06-07T11:56:13.896Z,1008.14
2019-06-07T11:57:15.053Z,1008.19
2019-06-07T11:58:18.548Z,1008.12
2019-06-07T11:59:17.364Z,1008.11
2019-06-07T12:00:18.413Z,1008.10
2019-06-07T12:01:19.529Z,1008.06
2019-06-07T12:02:20.934Z,1008.03
2019-06-07T12:03:22.393Z,1008.03
2019-06-07T12:04:34.501Z,1008.00
2019-06-07T12:05:25.244Z,1008.02
2019-06-07T12:06:26.673Z,1008.00
2019-06-07T12:07:28.104Z,1007.97
2019-06-07T12:08:29.551Z,1007.99
2019-06-07T12:09:30.985Z,1007.81
2019-06-07T12:10:42.048Z,1007.88
2019-06-07T12:11:33.898Z,1008.00
2019-06-07T12:12:35.540Z,1007.77
2019-06-07T12:13:37.407Z,1007.94
2019-06-07T12:14:38.868Z,1007.96
2019-06-07T12:15:40.339Z,1007.92
2019-06-07T12:16:41.806Z,1007.90
2019-06-07T12:17:43.251Z,1007.84
2019-06-07T12:18:44.662Z,1007.94
2019-06-07T12:19:46.075Z,1007.87
2019-06-07T12:20:47.526Z,1007.73
2019-06-07T12:21:48.939Z,1007.67
2019-06-07T12:22:50.355Z,1007.66
2019-06-07T12:23:51.775Z,1007.73
2019-06-07T12:24:53.185Z,1007.83
2019-06-07T12:25:54.618Z,1007.84
2019-06-07T12:26:56.068Z,1007.84
2019-06-07T12:27:57.476Z,1007.74
2019-06-07T12:28:58.903Z,1007.58
2019-06-07T12:30:00.318Z,1007.60